Time;durP1;ratioP1;P1;durP2;ratioP2;P2;SDS_P1;SDS_P2;PMS_P1;PMS_P2;Temp;Humidity;BMP_temperature;BMP_pressure;BME280_temperature;BME280_humidity;BME280_pressure;Samples;Min_cycle;Max_cycle;Signal;HPM_P1;HPM_P2
2021/12/17 00:06:57;;;;;;;3.33;1.10;;;8.60;94.60;;;;;;4951216;29;20425;-78
2021/12/17 00:09:23;;;;;;;3.10;1.00;;;8.60;94.60;;;;;;4952102;28;20046;-78
2021/12/17 00:11:49;;;;;;;2.92;1.00;;;8.60;94.90;;;;;;4978178;28;20095;-78
2021/12/17 00:14:24;;;;;;;4.03;1.27;;;8.60;94.60;;;;;;4980389;28;20046;-76
2021/12/17 00:16:51;;;;;;;3.72;1.30;;;8.60;94.60;;;;;;5014064;28;20042;-79
2021/12/17 00:19:20;;;;;;;3.42;1.10;;;8.60;94.60;;;;;;4997108;28;20045;-79
2021/12/17 00:50:08;;;;;;;2.80;1.00;;;8.60;94.50;;;;;;4963759;28;20144;-79
2021/12/17 00:52:36;;;;;;;1.42;0.70;;;8.60;94.50;;;;;;4975990;28;20105;-79
2021/12/17 00:55:04;;;;;;;3.83;1.23;;;8.60;94.50;;;;;;4976499;28;20042;-76
2021/12/17 00:57:36;;;;;;;3.45;1.00;;;8.60;94.50;;;;;;4992701;28;20579;-77
2021/12/17 01:00:08;;;;;;;4.43;1.30;;;8.60;94.60;;;;;;4992625;28;20062;-78
2021/12/17 01:02:36;;;;;;;6.43;1.40;;;8.60;94.60;;;;;;4994785;28;20755;-76
2021/12/17 01:05:12;;;;;;;5.47;1.52;;;8.60;94.60;;;;;;4997433;28;20088;-80
2021/12/17 01:07:40;;;;;;;6.88;1.88;;;8.50;94.60;;;;;;5012214;28;20073;-78
2021/12/17 01:10:11;;;;;;;3.42;1.48;;;8.50;94.60;;;;;;5012533;28;20069;-79
2021/12/17 01:12:37;;;;;;;3.70;1.23;;;8.50;94.60;;;;;;5049618;28;20097;-79
2021/12/17 01:15:07;;;;;;;4.30;1.40;;;8.50;94.60;;;;;;5055017;28;20037;-78
2021/12/17 01:17:37;;;;;;;4.07;1.30;;;8.60;94.60;;;;;;5038730;28;20040;-78
2021/12/17 01:20:20;;;;;;;4.53;1.50;;;8.50;94.60;;;;;;5038694;28;20497;-79
2021/12/17 01:36:04;;;;;;;4.38;1.30;;;8.60;94.50;;;;;;5098252;28;20048;-79
2021/12/17 01:44:07;;;;;;;3.75;1.30;;;8.60;94.50;;;;;;5099239;28;20052;-79
2021/12/17 01:46:35;;;;;;;5.40;1.25;;;8.60;94.50;;;;;;5078895;28;20442;-79
2021/12/17 01:49:25;;;;;;;3.20;1.13;;;8.60;94.50;;;;;;5062449;28;20050;-79
2021/12/17 02:00:18;;;;;;;5.50;1.40;;;8.50;94.50;;;;;;5085790;28;20569;-78
2021/12/17 02:02:49;;;;;;;5.03;1.60;;;8.50;94.50;;;;;;5078678;28;20043;-78
2021/12/17 02:05:15;;;;;;;4.47;1.60;;;8.60;94.50;;;;;;5113877;28;20048;-77
2021/12/17 02:07:42;;;;;;;3.17;1.10;;;8.50;94.50;;;;;;5061714;28;20089;-78
2021/12/17 02:10:54;;;;;;;4.03;1.35;;;8.50;94.60;;;;;;5095263;28;20046;-78
2021/12/17 02:19:30;;;;;;;4.45;1.35;;;8.50;94.60;;;;;;5083747;28;20040;-77
2021/12/17 02:23:05;;;;;;;2.78;0.73;;;8.50;94.50;;;;;;5017256;28;20074;-79
2021/12/17 02:29:28;;;;;;;3.88;1.20;;;8.50;94.50;;;;;;4932481;29;20470;-80
2021/12/17 02:32:01;;;;;;;3.15;0.93;;;8.50;94.50;;;;;;4919394;29;20043;-79
2021/12/17 02:35:01;;;;;;;3.47;1.13;;;8.60;94.50;;;;;;4942299;28;20449;-80
2021/12/17 02:37:28;;;;;;;4.22;1.25;;;8.50;94.50;;;;;;4929017;29;20051;-80
2021/12/17 02:45:32;;;;;;;3.33;0.88;;;8.50;94.50;;;;;;4918436;29;20039;-80
2021/12/17 02:48:05;;;;;;;1.77;0.70;;;8.50;94.50;;;;;;4936237;29;20172;-80
2021/12/17 02:50:32;;;;;;;2.63;0.95;;;8.50;94.50;;;;;;4935494;28;20067;-80
2021/12/17 02:53:01;;;;;;;3.05;1.00;;;8.50;94.50;;;;;;4933158;28;20102;-80
2021/12/17 02:55:29;;;;;;;2.22;0.60;;;8.50;94.50;;;;;;4917663;29;20040;-80
2021/12/17 02:57:56;;;;;;;2.28;0.93;;;8.50;94.50;;;;;;4960312;28;20163;-79
2021/12/17 03:00:22;;;;;;;1.85;1.00;;;8.50;94.60;;;;;;4990845;28;20145;-80
2021/12/17 03:02:49;;;;;;;2.78;0.95;;;8.60;94.60;;;;;;4958432;28;20133;-80
2021/12/17 03:05:15;;;;;;;2.22;1.00;;;8.60;94.60;;;;;;4939893;28;20042;-80
2021/12/17 03:07:44;;;;;;;3.72;1.23;;;8.60;94.50;;;;;;4981170;28;20099;-80
2021/12/17 03:10:12;;;;;;;3.05;1.25;;;8.50;94.50;;;;;;5033088;28;20045;-80
2021/12/17 03:12:43;;;;;;;2.92;1.30;;;8.60;94.50;;;;;;5099120;28;20035;-80
2021/12/17 03:23:32;;;;;;;2.53;1.05;;;8.50;94.50;;;;;;5081809;28;20488;-80
2021/12/17 03:26:03;;;;;;;2.17;0.80;;;8.60;94.50;;;;;;5078818;28;20043;-80
2021/12/17 03:28:30;;;;;;;2.33;0.80;;;8.60;94.50;;;;;;5094144;28;20039;-80
2021/12/17 03:30:56;;;;;;;2.40;0.93;;;8.60;94.50;;;;;;5077123;28;20051;-81
2021/12/17 03:33:22;;;;;;;2.38;0.88;;;8.60;94.50;;;;;;5094040;28;20048;-79
2021/12/17 03:35:49;;;;;;;1.70;0.90;;;8.60;94.50;;;;;;5060457;28;20093;-80
2021/12/17 03:38:16;;;;;;;2.22;1.00;;;8.60;94.50;;;;;;5077671;28;20042;-80
2021/12/17 03:40:43;;;;;;;1.85;0.90;;;8.60;94.50;;;;;;5079282;28;20043;-80
2021/12/17 03:43:13;;;;;;;2.92;0.80;;;8.60;94.50;;;;;;5094633;28;20595;-80
2021/12/17 03:45:41;;;;;;;3.17;1.00;;;8.50;94.50;;;;;;5078359;28;20114;-80
2021/12/17 03:48:08;;;;;;;2.63;1.17;;;8.60;94.50;;;;;;5094252;28;20114;-80
2021/12/17 03:50:36;;;;;;;2.33;0.82;;;8.70;94.50;;;;;;5094624;28;20502;-80
2021/12/17 03:53:05;;;;;;;3.85;1.20;;;8.60;94.50;;;;;;5077534;28;20046;-80
2021/12/17 03:55:31;;;;;;;2.38;1.05;;;8.60;94.50;;;;;;5113771;28;20093;-80
2021/12/17 03:58:00;;;;;;;3.28;1.00;;;8.70;94.50;;;;;;5112046;28;20074;-80
2021/12/17 04:00:26;;;;;;;3.03;1.00;;;8.70;94.50;;;;;;5094092;28;20032;-80
2021/12/17 04:02:52;;;;;;;2.83;0.90;;;8.70;94.50;;;;;;5112252;28;20069;-80
2021/12/17 04:05:18;;;;;;;2.88;0.80;;;8.60;94.40;;;;;;5076811;28;20044;-80
2021/12/17 04:07:44;;;;;;;3.00;0.80;;;8.70;94.50;;;;;;5112014;28;20040;-80
2021/12/17 04:10:10;;;;;;;2.22;0.90;;;8.70;94.50;;;;;;5077736;28;20036;-79
2021/12/17 04:12:55;;;;;;;2.88;0.93;;;8.70;94.50;;;;;;5093683;28;20485;-80
2021/12/17 04:15:33;;;;;;;2.78;0.80;;;8.60;94.40;;;;;;5079870;28;20110;-80
2021/12/17 04:17:59;;;;;;;2.15;0.63;;;8.60;94.40;;;;;;5084451;28;20442;-80
2021/12/17 04:20:25;;;;;;;1.85;0.80;;;8.60;94.50;;;;;;5080480;28;20051;-80
2021/12/17 04:22:51;;;;;;;3.13;1.00;;;8.60;94.50;;;;;;5079977;28;20159;-80
2021/12/17 04:25:17;;;;;;;3.20;1.00;;;8.60;94.50;;;;;;5079986;28;20044;-80
2021/12/17 04:27:42;;;;;;;1.55;0.77;;;8.70;94.50;;;;;;5097277;28;20044;-79
2021/12/17 04:30:09;;;;;;;2.15;0.70;;;8.80;94.50;;;;;;5096971;28;20044;-79
2021/12/17 04:32:36;;;;;;;2.45;0.90;;;8.60;94.50;;;;;;5079728;28;20519;-80
2021/12/17 04:35:03;;;;;;;1.75;0.80;;;8.60;94.50;;;;;;5079871;28;20504;-80
2021/12/17 04:37:28;;;;;;;2.55;0.93;;;8.70;94.50;;;;;;5097196;28;20036;-80
2021/12/17 04:39:54;;;;;;;2.13;0.80;;;8.60;94.50;;;;;;5115002;28;20055;-80
2021/12/17 04:42:31;;;;;;;1.88;0.70;;;8.50;94.50;;;;;;5096643;28;20066;-80
2021/12/17 04:44:58;;;;;;;3.47;0.80;;;8.70;94.50;;;;;;5098408;28;20517;-80
2021/12/17 04:58:03;;;;;;;1.85;0.70;;;8.60;94.50;;;;;;5100689;28;20089;-80
2021/12/17 05:00:30;;;;;;;2.75;0.80;;;8.50;94.50;;;;;;5096597;28;20070;-80
2021/12/17 05:02:59;;;;;;;3.03;0.90;;;8.50;94.50;;;;;;5061217;28;20039;-80
2021/12/17 05:05:30;;;;;;;1.85;0.85;;;8.70;94.60;;;;;;5096763;28;20036;-80
2021/12/17 05:08:04;;;;;;;2.65;0.70;;;8.60;94.50;;;;;;5063576;28;20059;-80
2021/12/17 05:10:55;;;;;;;1.85;0.82;;;8.60;94.50;;;;;;5083633;28;20035;-80
2021/12/17 05:18:56;;;;;;;1.95;0.70;;;8.60;94.50;;;;;;5099982;28;20069;-80
2021/12/17 05:21:23;;;;;;;1.73;0.77;;;8.60;94.50;;;;;;5096034;28;20100;-79
2021/12/17 05:23:51;;;;;;;2.30;0.95;;;8.60;94.50;;;;;;5114961;28;20396;-80
2021/12/17 05:26:19;;;;;;;3.10;1.00;;;8.60;94.50;;;;;;5080940;28;20370;-80
2021/12/17 05:28:46;;;;;;;1.88;0.75;;;8.60;94.50;;;;;;5080101;28;20040;-80
2021/12/17 05:31:16;;;;;;;2.80;0.90;;;8.60;94.50;;;;;;5097614;28;20043;-79
2021/12/17 05:33:42;;;;;;;3.15;0.90;;;8.60;94.50;;;;;;5062989;28;20043;-80
2021/12/17 05:36:07;;;;;;;2.63;1.08;;;8.60;94.50;;;;;;5114241;28;20100;-80
2021/12/17 05:38:33;;;;;;;2.65;0.80;;;8.70;94.50;;;;;;5096697;28;20397;-79
2021/12/17 05:40:59;;;;;;;2.88;0.98;;;8.60;94.50;;;;;;5096222;28;20043;-79
2021/12/17 05:43:25;;;;;;;1.70;0.73;;;8.50;94.50;;;;;;5062398;28;20043;-79
2021/12/17 05:46:09;;;;;;;2.67;0.80;;;8.60;94.50;;;;;;5096100;28;20039;-79
2021/12/17 05:48:35;;;;;;;3.42;1.15;;;8.60;94.50;;;;;;5098527;28;20039;-81
2021/12/17 05:51:04;;;;;;;3.35;0.95;;;8.60;94.50;;;;;;5096214;28;20509;-80
2021/12/17 05:53:30;;;;;;;3.72;0.90;;;8.60;94.50;;;;;;5062583;28;20132;-79
2021/12/17 05:55:57;;;;;;;2.45;0.90;;;8.60;94.50;;;;;;5082853;28;20064;-78
2021/12/17 05:58:24;;;;;;;2.15;0.90;;;8.60;94.50;;;;;;5099150;28;20401;-80
2021/12/17 06:00:50;;;;;;;2.00;0.90;;;8.60;94.50;;;;;;5079680;28;20039;-80
2021/12/17 06:03:17;;;;;;;2.67;0.90;;;8.60;94.50;;;;;;5114104;28;20039;-80
2021/12/17 06:05:44;;;;;;;2.45;0.70;;;8.60;94.50;;;;;;5080480;28;20488;-80
2021/12/17 06:08:10;;;;;;;2.55;1.02;;;8.60;94.50;;;;;;5078949;28;20489;-80
2021/12/17 06:10:36;;;;;;;2.28;0.80;;;8.60;94.50;;;;;;5079865;28;20043;-81
2021/12/17 06:13:02;;;;;;;2.28;0.80;;;8.60;94.50;;;;;;5114076;28;20042;-80
2021/12/17 06:15:28;;;;;;;2.83;0.98;;;8.60;94.50;;;;;;5115568;28;20035;-81
2021/12/17 06:17:55;;;;;;;2.13;0.70;;;8.60;94.50;;;;;;5095582;28;20442;-81
2021/12/17 06:20:23;;;;;;;1.88;0.65;;;8.60;94.50;;;;;;5060058;28;20104;-81
2021/12/17 06:22:50;;;;;;;4.05;0.90;;;8.60;94.50;;;;;;5113746;28;20035;-81
2021/12/17 06:25:17;;;;;;;1.88;0.75;;;8.60;94.50;;;;;;5095513;28;20050;-81
2021/12/17 06:27:43;;;;;;;2.58;0.75;;;8.70;94.60;;;;;;5113632;28;20489;-81
2021/12/17 06:30:12;;;;;;;3.95;0.80;;;8.60;94.50;;;;;;5086541;28;20054;-81
2021/12/17 06:32:38;;;;;;;2.60;0.80;;;8.60;94.50;;;;;;5078568;28;20122;-81
2021/12/17 06:35:04;;;;;;;2.90;1.02;;;8.60;94.50;;;;;;5095597;28;20066;-79
2021/12/17 06:37:30;;;;;;;2.60;1.00;;;8.60;94.50;;;;;;5095510;28;20048;-79
2021/12/17 06:39:58;;;;;;;2.70;0.90;;;8.60;94.50;;;;;;5095285;28;20044;-79
2021/12/17 06:42:25;;;;;;;1.45;0.55;;;8.70;94.50;;;;;;5095441;28;20035;-79
2021/12/17 06:44:55;;;;;;;2.17;0.88;;;8.70;94.50;;;;;;5037136;28;20093;-79
2021/12/17 06:47:32;;;;;;;3.80;1.30;;;8.60;94.50;;;;;;5038794;28;20036;-79
2021/12/17 06:54:37;;;;;;;2.38;0.82;;;8.60;94.50;;;;;;5036016;28;20044;-79
2021/12/17 06:58:55;;;;;;;3.70;1.17;;;8.60;94.50;;;;;;5035922;28;20049;-79
2021/12/17 07:22:41;;;;;;;3.00;0.82;;;8.60;94.50;;;;;;5076866;28;20063;-79
2021/12/17 07:33:17;;;;;;;4.93;1.52;;;8.60;94.50;;;;;;5081909;28;20048;-81
2021/12/17 07:35:52;;;;;;;4.15;1.20;;;8.60;94.50;;;;;;5079397;28;20044;-79
2021/12/17 07:40:56;;;;;;;3.85;1.17;;;8.60;94.50;;;;;;5054351;28;20501;-79
2021/12/17 07:46:08;;;;;;;3.13;0.90;;;8.60;94.50;;;;;;5055137;28;20044;-79
2021/12/17 07:48:38;;;;;;;2.72;1.17;;;8.60;94.50;;;;;;5036402;28;20183;-79
2021/12/17 07:51:09;;;;;;;3.20;0.98;;;8.70;94.50;;;;;;5044848;28;20119;-79
2021/12/17 07:53:35;;;;;;;3.05;1.08;;;8.60;94.50;;;;;;5073502;28;20143;-80
2021/12/17 07:56:04;;;;;;;2.47;0.93;;;8.60;94.40;;;;;;5057421;28;20440;-78
2021/12/17 07:58:30;;;;;;;3.00;1.05;;;8.60;94.50;;;;;;5039589;28;20028;-78
2021/12/17 08:00:57;;;;;;;2.80;0.95;;;8.70;94.50;;;;;;5056414;28;20049;-78
2021/12/17 08:03:22;;;;;;;2.55;0.98;;;8.70;94.50;;;;;;5039645;28;20135;-77
2021/12/17 08:05:49;;;;;;;1.70;0.70;;;8.70;94.50;;;;;;5039692;28;20549;-78
2021/12/17 08:08:15;;;;;;;2.83;0.80;;;8.80;94.50;;;;;;5059516;28;20079;-79
2021/12/17 08:10:41;;;;;;;2.95;0.90;;;8.70;94.50;;;;;;5098987;28;21386;-78
2021/12/17 08:13:13;;;;;;;1.75;0.80;;;8.70;94.50;;;;;;5116137;28;20050;-78
2021/12/17 08:15:47;;;;;;;2.22;0.85;;;8.70;94.50;;;;;;5066042;28;20036;-77
2021/12/17 08:18:26;;;;;;;1.77;0.70;;;8.70;94.50;;;;;;5082319;28;20054;-78
2021/12/17 08:24:09;;;;;;;1.42;0.77;;;8.60;94.40;;;;;;5082024;28;20527;-77
2021/12/17 08:26:23;;;;;;;2.30;0.65;;;8.80;94.50;;;;;;5100357;28;20108;-77
2021/12/17 08:28:54;;;;;;;1.27;0.50;;;8.70;94.50;;;;;;5065736;28;20051;-77
2021/12/17 08:31:20;;;;;;;1.83;0.73;;;8.70;94.40;;;;;;5065061;28;20123;-77
2021/12/17 08:33:47;;;;;;;0.80;0.50;;;8.60;94.40;;;;;;5079954;28;20071;-76
2021/12/17 08:36:14;;;;;;;1.90;0.70;;;8.70;94.50;;;;;;5063511;28;20043;-77
2021/12/17 08:38:42;;;;;;;1.17;0.60;;;8.70;94.40;;;;;;5063890;28;20039;-77
2021/12/17 08:41:09;;;;;;;2.20;0.82;;;8.70;94.40;;;;;;5080130;28;20047;-77
2021/12/17 08:43:35;;;;;;;1.83;0.70;;;8.70;94.40;;;;;;5064055;28;20063;-77
2021/12/17 08:46:02;;;;;;;3.33;1.00;;;8.70;94.40;;;;;;5063767;28;20049;-76
2021/12/17 08:48:27;;;;;;;2.25;0.60;;;8.70;94.40;;;;;;5063519;28;20067;-76
2021/12/17 08:50:54;;;;;;;2.95;0.90;;;8.70;94.40;;;;;;5063304;28;20485;-76
2021/12/17 08:53:20;;;;;;;1.45;0.60;;;8.70;94.40;;;;;;5063430;28;20043;-76
2021/12/17 08:55:46;;;;;;;2.20;0.88;;;8.70;94.40;;;;;;5063238;28;20047;-76
2021/12/17 08:58:14;;;;;;;2.25;0.77;;;8.70;94.40;;;;;;5079826;28;20047;-76
2021/12/17 09:00:41;;;;;;;2.75;0.88;;;8.70;94.40;;;;;;5081115;28;20040;-77
2021/12/17 09:03:09;;;;;;;2.33;0.93;;;8.70;94.40;;;;;;5079105;28;20043;-78
2021/12/17 09:05:37;;;;;;;1.38;0.75;;;8.70;94.40;;;;;;5080606;28;20047;-75
2021/12/17 09:08:05;;;;;;;1.48;0.63;;;8.70;94.40;;;;;;5114905;28;20492;-82
2021/12/17 09:10:32;;;;;;;1.85;0.65;;;8.70;94.40;;;;;;5064582;28;20047;-77
2021/12/17 09:12:58;;;;;;;1.23;0.63;;;8.80;94.40;;;;;;5115273;28;20568;-78
2021/12/17 09:15:24;;;;;;;1.30;0.75;;;8.80;94.40;;;;;;5079597;28;20059;-77
2021/12/17 09:17:50;;;;;;;1.80;0.60;;;8.80;94.40;;;;;;5096638;28;20040;-80
2021/12/17 09:20:15;;;;;;;1.45;0.70;;;8.80;94.40;;;;;;5079468;28;20043;-80
2021/12/17 09:22:41;;;;;;;2.15;0.90;;;8.80;94.40;;;;;;5097308;28;20044;-79
2021/12/17 09:25:28;;;;;;;1.67;0.73;;;8.80;94.40;;;;;;5079906;28;20496;-80
2021/12/17 09:27:54;;;;;;;2.30;0.88;;;8.80;94.30;;;;;;5079912;28;20085;-77
2021/12/17 09:30:20;;;;;;;1.75;0.80;;;8.80;94.30;;;;;;5115407;28;20080;-77
2021/12/17 09:32:46;;;;;;;1.98;0.90;;;8.80;94.30;;;;;;5115191;28;20032;-77
2021/12/17 09:35:12;;;;;;;3.15;1.00;;;8.80;94.30;;;;;;5114547;28;20036;-79
2021/12/17 09:37:39;;;;;;;1.83;0.65;;;8.80;94.30;;;;;;5116162;28;20046;-78
2021/12/17 09:40:07;;;;;;;2.17;0.70;;;8.80;94.30;;;;;;5116249;28;20039;-79
2021/12/17 09:42:35;;;;;;;1.73;0.70;;;8.70;94.30;;;;;;5115314;28;20044;-79
2021/12/17 09:45:01;;;;;;;2.13;0.80;;;8.80;94.30;;;;;;5116935;28;20047;-78
2021/12/17 09:47:26;;;;;;;2.50;0.80;;;8.70;94.30;;;;;;5096644;28;20047;-79
2021/12/17 09:49:57;;;;;;;3.20;1.08;;;8.70;94.30;;;;;;5116349;28;20035;-79
2021/12/17 09:52:24;;;;;;;1.23;0.70;;;8.70;94.30;;;;;;5082340;28;20516;-81
2021/12/17 09:54:52;;;;;;;0.98;0.60;;;8.70;94.30;;;;;;5095940;28;20035;-79
2021/12/17 09:57:19;;;;;;;1.45;0.55;;;8.70;94.30;;;;;;5114869;28;20123;-79
2021/12/17 09:59:45;;;;;;;0.70;0.57;;;8.60;94.30;;;;;;5095993;28;20077;-79
2021/12/17 10:02:12;;;;;;;0.95;0.60;;;8.70;94.30;;;;;;5095655;28;20124;-79
2021/12/17 10:05:03;;;;;;;1.70;0.70;;;8.60;94.30;;;;;;5080381;28;20040;-81
2021/12/17 10:07:30;;;;;;;0.38;0.30;;;8.70;94.30;;;;;;5013537;28;20064;-79
2021/12/17 10:10:01;;;;;;;1.42;0.60;;;8.70;94.30;;;;;;5018471;28;20041;-84
2021/12/17 10:12:30;;;;;;;2.00;0.60;;;8.70;94.30;;;;;;4992631;28;20053;-78
2021/12/17 10:15:36;;;;;;;1.30;0.40;;;8.70;94.30;;;;;;4991248;28;20079;-79
2021/12/17 10:18:35;;;;;;;0.73;0.40;;;8.70;94.30;;;;;;4989412;28;20035;-78
2021/12/17 10:21:05;;;;;;;1.05;0.50;;;8.70;94.30;;;;;;4975349;28;20043;-78
2021/12/17 10:23:33;;;;;;;0.47;0.40;;;8.70;94.20;;;;;;4992873;28;20034;-78
2021/12/17 10:26:00;;;;;;;0.30;0.20;;;8.70;94.20;;;;;;4975389;28;20054;-78
2021/12/17 10:28:51;;;;;;;0.60;0.45;;;8.70;94.20;;;;;;4974880;28;20053;-78
2021/12/17 10:31:17;;;;;;;;;;;8.70;94.30;;;;;;4994755;28;20064;-78
2021/12/17 10:33:50;;;;;;;0.38;0.22;;;8.70;94.20;;;;;;5011456;28;19913;-79
2021/12/17 10:36:29;;;;;;;0.55;0.38;;;8.80;94.20;;;;;;4994312;28;20045;-79
2021/12/17 10:38:55;;;;;;;0.30;0.30;;;8.80;94.20;;;;;;5046264;28;20044;-78
2021/12/17 10:41:26;;;;;;;0.85;0.50;;;8.80;94.10;;;;;;5037470;28;20044;-78
2021/12/17 10:43:58;;;;;;;1.00;0.50;;;8.80;94.10;;;;;;5050474;28;20123;-79
2021/12/17 10:46:28;;;;;;;0.90;0.50;;;8.80;94.20;;;;;;5096509;28;20046;-79
2021/12/17 10:49:01;;;;;;;0.30;0.30;;;8.90;94.10;;;;;;5095858;28;20051;-79
2021/12/17 10:54:19;;;;;;;0.70;0.50;;;8.90;94.10;;;;;;5097801;28;20044;-79
2021/12/17 10:56:49;;;;;;;1.08;0.47;;;8.90;94.10;;;;;;5095244;28;20044;-78
2021/12/17 10:59:21;;;;;;;0.43;0.33;;;8.90;94.00;;;;;;5095421;28;20390;-79
2021/12/17 11:01:53;;;;;;;0.50;0.40;;;9.00;94.10;;;;;;5096053;28;20043;-78
2021/12/17 11:04:23;;;;;;;0.22;0.20;;;8.90;94.00;;;;;;5095624;28;20512;-79
2021/12/17 11:06:56;;;;;;;0.85;0.43;;;9.00;94.00;;;;;;5094655;28;20047;-79
2021/12/17 11:09:54;;;;;;;0.60;0.47;;;9.00;94.00;;;;;;5094687;28;20108;-79
2021/12/17 11:12:36;;;;;;;0.80;0.40;;;9.00;94.00;;;;;;5112755;28;20063;-79
2021/12/17 11:15:22;;;;;;;0.45;0.32;;;9.00;94.00;;;;;;5112439;28;20106;-82
2021/12/17 11:17:51;;;;;;;0.65;0.30;;;9.10;94.00;;;;;;5077741;28;20063;-79
2021/12/17 11:20:24;;;;;;;1.00;0.50;;;9.10;94.00;;;;;;5113122;28;20039;-81
2021/12/17 11:23:13;;;;;;;0.60;0.28;;;9.20;94.00;;;;;;5080085;28;20527;-83
2021/12/17 11:25:53;;;;;;;0.40;0.30;;;9.20;93.90;;;;;;5051914;28;20045;-81
2021/12/17 11:28:20;;;;;;;0.30;0.30;;;9.10;93.80;;;;;;5008941;28;20150;-81
2021/12/17 11:30:51;;;;;;;0.90;0.50;;;9.20;93.90;;;;;;5003638;28;20395;-78
2021/12/17 11:33:23;;;;;;;0.37;0.37;;;9.10;93.90;;;;;;5029815;28;20042;-78
2021/12/17 11:36:01;;;;;;;0.68;0.40;;;9.10;93.90;;;;;;5028340;28;20132;-78
2021/12/17 11:38:40;;;;;;;0.32;0.25;;;9.20;93.90;;;;;;5032027;28;20133;-78
2021/12/17 11:41:14;;;;;;;0.50;0.40;;;9.10;93.90;;;;;;5013626;28;20042;-80
2021/12/17 11:43:54;;;;;;;0.40;0.32;;;9.20;93.90;;;;;;5014448;28;20072;-78
2021/12/17 11:47:03;;;;;;;0.75;0.32;;;9.10;93.90;;;;;;5014989;28;20041;-80
2021/12/17 11:49:34;;;;;;;1.05;0.35;;;9.10;93.90;;;;;;5029173;28;20503;-77
2021/12/17 11:52:00;;;;;;;0.35;0.35;;;9.20;94.00;;;;;;5029758;28;20573;-80
2021/12/17 11:54:34;;;;;;;0.73;0.43;;;9.10;93.90;;;;;;4996610;28;20034;-82
2021/12/17 11:57:10;;;;;;;1.27;0.50;;;9.10;93.90;;;;;;5012912;28;20048;-82
2021/12/17 11:59:40;;;;;;;0.65;0.50;;;9.10;94.00;;;;;;5039581;28;20488;-82
2021/12/17 12:02:25;;;;;;;0.77;0.50;;;9.10;93.90;;;;;;5040206;28;20049;-81
2021/12/17 12:04:55;;;;;;;1.17;0.40;;;9.10;94.00;;;;;;5063399;28;20046;-81
2021/12/17 12:07:33;;;;;;;1.42;0.65;;;9.10;94.00;;;;;;5077524;28;20134;-81
2021/12/17 12:10:12;;;;;;;0.82;0.40;;;9.10;94.00;;;;;;5092744;28;20050;-81
2021/12/17 12:12:58;;;;;;;0.45;0.40;;;9.10;94.00;;;;;;5113498;28;20123;-81
2021/12/17 12:15:30;;;;;;;0.35;0.20;;;9.10;94.00;;;;;;5111166;28;20046;-81
2021/12/17 12:18:17;;;;;;;0.40;0.30;;;9.00;93.90;;;;;;5094197;28;20489;-81
2021/12/17 12:20:51;;;;;;;0.30;0.20;;;9.00;93.90;;;;;;5094597;28;20080;-81
2021/12/17 12:23:59;;;;;;;0.22;0.22;;;9.00;94.00;;;;;;5095335;28;20051;-81
2021/12/17 12:26:36;;;;;;;0.55;0.30;;;9.00;93.90;;;;;;5078767;28;20085;-81
2021/12/17 12:29:10;;;;;;;0.40;0.30;;;8.90;93.90;;;;;;5093652;28;20067;-82
2021/12/17 12:31:45;;;;;;;0.20;0.20;;;9.00;93.90;;;;;;5101019;28;20039;-78
2021/12/17 12:34:15;;;;;;;0.45;0.30;;;9.00;93.90;;;;;;5094987;28;20040;-80
2021/12/17 12:36:50;;;;;;;0.32;0.30;;;9.10;93.90;;;;;;5095156;28;20074;-80
2021/12/17 12:39:21;;;;;;;0.30;0.30;;;9.10;93.80;;;;;;5098878;28;20044;-82
2021/12/17 12:42:09;;;;;;;0.65;0.35;;;9.20;93.80;;;;;;5083635;28;20126;-80
2021/12/17 12:45:12;;;;;;;0.52;0.40;;;9.20;93.80;;;;;;5104189;28;20534;-79
2021/12/17 12:47:41;;;;;;;0.30;0.30;;;9.30;93.80;;;;;;5105816;28;20054;-81
2021/12/17 12:50:11;;;;;;;0.28;0.20;;;9.30;93.70;;;;;;5116280;28;20043;-78
2021/12/17 12:52:45;;;;;;;0.10;0.10;;;9.40;93.70;;;;;;5097741;28;20049;-81
2021/12/17 12:55:23;;;;;;;0.20;0.20;;;9.40;93.70;;;;;;5083147;28;20045;-76
2021/12/17 12:58:06;;;;;;;0.22;0.20;;;9.40;93.60;;;;;;5080262;28;20035;-76
2021/12/17 13:00:43;;;;;;;0.20;0.20;;;9.40;93.60;;;;;;5106738;28;20039;-81
2021/12/17 13:03:16;;;;;;;0.40;0.40;;;9.40;93.60;;;;;;5082861;28;20048;-79
2021/12/17 13:05:44;;;;;;;0.80;0.40;;;9.50;93.60;;;;;;5101114;28;20142;-81
2021/12/17 13:08:12;;;;;;;0.52;0.30;;;9.50;93.50;;;;;;5074312;28;20103;-78
2021/12/17 13:10:45;;;;;;;1.10;0.57;;;9.60;93.60;;;;;;5105071;28;20070;-81
2021/12/17 13:13:20;;;;;;;0.50;0.40;;;9.60;93.50;;;;;;5081302;28;20036;-82
2021/12/17 13:16:07;;;;;;;0.65;0.30;;;9.70;93.50;;;;;;5097077;28;20032;-80
2021/12/17 13:21:31;;;;;;;0.30;0.30;;;9.60;93.40;;;;;;5083224;28;20055;-81
2021/12/17 13:24:12;;;;;;;0.30;0.30;;;9.70;93.40;;;;;;5120688;28;20039;-78
2021/12/17 13:26:40;;;;;;;0.50;0.40;;;9.70;93.40;;;;;;5114152;28;20396;-79
2021/12/17 13:29:13;;;;;;;0.63;0.47;;;9.70;93.40;;;;;;5124596;28;20038;-80
2021/12/17 13:31:44;;;;;;;0.43;0.40;;;9.60;93.30;;;;;;5107651;28;20052;-79
2021/12/17 13:38:18;;;;;;;0.32;0.32;;;9.70;93.30;;;;;;4954586;28;20087;-80
2021/12/17 13:40:52;;;;;;;0.40;0.32;;;9.70;93.30;;;;;;4978330;28;20046;-81
2021/12/17 13:43:26;;;;;;;0.30;0.25;;;9.70;93.30;;;;;;5009722;28;20042;-82
2021/12/17 13:46:10;;;;;;;0.32;0.30;;;9.70;93.30;;;;;;4993949;28;20041;-81
2021/12/17 13:48:45;;;;;;;0.28;0.28;;;9.60;93.30;;;;;;5008554;28;20133;-82
2021/12/17 13:51:13;;;;;;;0.70;0.60;;;9.60;93.30;;;;;;5016168;28;20056;-82
2021/12/17 13:53:39;;;;;;;0.40;0.40;;;9.70;93.30;;;;;;5025662;28;20038;-80
2021/12/17 13:56:05;;;;;;;0.32;0.30;;;9.60;93.30;;;;;;5014649;28;20050;-79
2021/12/17 13:58:34;;;;;;;0.40;0.40;;;9.50;93.30;;;;;;4996869;28;20046;-79
2021/12/17 14:01:01;;;;;;;0.70;0.40;;;9.60;93.30;;;;;;5012565;28;20097;-79
2021/12/17 14:03:34;;;;;;;0.80;0.40;;;9.60;93.30;;;;;;5013597;28;20041;-82
2021/12/17 14:06:18;;;;;;;0.43;0.40;;;9.60;93.30;;;;;;4970807;28;20109;-83
2021/12/17 14:08:51;;;;;;;0.40;0.40;;;9.60;93.30;;;;;;4970376;28;20046;-83
2021/12/17 14:11:29;;;;;;;0.63;0.43;;;9.60;93.30;;;;;;4992391;28;20043;-83
2021/12/17 14:13:54;;;;;;;0.57;0.40;;;9.60;93.30;;;;;;5018509;28;20172;-83
2021/12/17 14:16:33;;;;;;;0.60;0.40;;;9.50;93.30;;;;;;5034607;28;20095;-83
2021/12/17 14:19:00;;;;;;;0.40;0.40;;;9.40;93.20;;;;;;5040827;28;20544;-82
2021/12/17 14:21:27;;;;;;;0.30;0.30;;;9.50;93.20;;;;;;5054410;28;20064;-82
2021/12/17 14:23:53;;;;;;;0.40;0.40;;;9.50;93.20;;;;;;5056700;28;20059;-81
2021/12/17 14:26:28;;;;;;;0.70;0.50;;;9.50;93.20;;;;;;5071616;28;20041;-81
2021/12/17 14:28:54;;;;;;;0.38;0.38;;;9.60;93.20;;;;;;5071790;28;20041;-82
2021/12/17 14:31:23;;;;;;;0.45;0.30;;;9.50;93.20;;;;;;5054892;28;20036;-82
2021/12/17 14:33:52;;;;;;;0.32;0.32;;;9.50;93.20;;;;;;5071564;28;20045;-81
2021/12/17 14:36:25;;;;;;;0.65;0.50;;;9.50;93.20;;;;;;5064996;28;20036;-81
2021/12/17 14:38:58;;;;;;;0.50;0.45;;;9.50;93.20;;;;;;5112395;28;20488;-81
2021/12/17 14:41:32;;;;;;;0.82;0.60;;;9.50;93.20;;;;;;5079889;28;20032;-82
2021/12/17 14:44:05;;;;;;;0.55;0.50;;;9.40;93.10;;;;;;5096133;28;20092;-81
2021/12/17 14:46:49;;;;;;;0.57;0.50;;;9.50;93.10;;;;;;5095808;28;20396;-81
2021/12/17 14:57:52;;;;;;;0.68;0.47;;;9.50;93.10;;;;;;5098741;28;20496;-82
2021/12/17 15:02:57;;;;;;;0.38;0.35;;;9.40;93.10;;;;;;5118850;28;20062;-82
2021/12/17 15:05:27;;;;;;;0.80;0.50;;;9.40;93.10;;;;;;5121458;28;20051;-81
2021/12/17 15:07:54;;;;;;;0.55;0.40;;;9.40;93.10;;;;;;5069196;28;20047;-82
2021/12/17 15:10:23;;;;;;;0.60;0.50;;;9.50;93.10;;;;;;5080942;28;20043;-82
2021/12/17 15:12:50;;;;;;;1.17;0.68;;;9.40;93.10;;;;;;5098548;28;20092;-80
2021/12/17 15:15:20;;;;;;;0.82;0.60;;;9.40;93.10;;;;;;5097540;28;20031;-81
2021/12/17 15:17:51;;;;;;;0.82;0.60;;;9.40;93.10;;;;;;5062219;28;20111;-83
2021/12/17 15:20:24;;;;;;;0.50;0.50;;;9.40;93.10;;;;;;5034096;28;20083;-84
2021/12/17 15:22:51;;;;;;;1.15;0.80;;;9.40;93.10;;;;;;5015530;28;20049;-80
2021/12/17 15:25:17;;;;;;;0.52;0.52;;;9.20;93.00;;;;;;5015648;28;20041;-81
2021/12/17 15:27:44;;;;;;;0.63;0.50;;;9.30;93.10;;;;;;5014235;28;20056;-80
2021/12/17 15:30:14;;;;;;;0.95;0.60;;;9.30;93.10;;;;;;5014298;28;20169;-78
2021/12/17 15:32:40;;;;;;;0.80;0.60;;;9.30;93.10;;;;;;5018905;28;20037;-80
2021/12/17 15:35:18;;;;;;;1.60;0.70;;;9.30;93.10;;;;;;5000557;28;20119;-82
2021/12/17 15:37:44;;;;;;;1.40;0.80;;;9.30;93.10;;;;;;5016654;28;20561;-81
2021/12/17 15:40:14;;;;;;;1.13;0.65;;;9.30;93.10;;;;;;5030604;28;20399;-81
2021/12/17 15:42:40;;;;;;;1.58;0.90;;;9.30;93.10;;;;;;5030624;28;20119;-82
2021/12/17 15:45:07;;;;;;;0.80;0.60;;;9.30;93.10;;;;;;5030477;28;20049;-82
2021/12/17 15:47:33;;;;;;;1.33;0.70;;;9.30;93.00;;;;;;5016576;28;20048;-79
2021/12/17 15:49:58;;;;;;;1.02;0.70;;;9.30;93.10;;;;;;5017051;28;20046;-79
2021/12/17 15:52:24;;;;;;;1.20;0.82;;;9.30;93.10;;;;;;5074173;28;20356;-81
2021/12/17 15:54:51;;;;;;;1.27;0.73;;;9.30;93.00;;;;;;5077093;28;20477;-81
2021/12/17 15:57:17;;;;;;;1.20;0.80;;;9.30;93.00;;;;;;5095792;28;20526;-84
2021/12/17 16:04:31;;;;;;;2.35;0.70;;;9.30;93.00;;;;;;5027547;28;20044;-83
2021/12/17 16:07:23;;;;;;;1.17;0.82;;;9.30;93.00;;;;;;4970243;28;20042;-84
2021/12/17 16:18:11;;;;;;;0.82;0.77;;;9.20;93.00;;;;;;4961111;28;20498;-81